Time;durP1;ratioP1;P1;durP2;ratioP2;P2;SDS_P1;SDS_P2;PMS_P1;PMS_P2;Temp;Humidity;BMP_temperature;BMP_pressure;BME280_temperature;BME280_humidity;BME280_pressure;Samples;Min_cycle;Max_cycle;Signal;HPM_P1;HPM_P2
2021/12/09 00:01:41;;;;;;;4.28;1.70;;;;;;;;;;5023521;28;20025;-72
2021/12/09 00:04:12;;;;;;;5.38;1.88;;;;;;;;;;5022889;28;20032;-72
2021/12/09 00:06:38;;;;;;;3.50;1.67;;;;;;;;;;5023224;28;20054;-72
2021/12/09 00:09:08;;;;;;;6.10;2.08;;;;;;;;;;5022794;28;20439;-72
2021/12/09 00:11:42;;;;;;;4.45;1.88;;;;;;;;;;5023059;28;20018;-71
2021/12/09 00:14:10;;;;;;;3.58;1.88;;;;;;;;;;5022418;28;20040;-72
2021/12/09 00:16:35;;;;;;;5.38;2.55;;;;;;;;;;5022138;28;20068;-73
2021/12/09 00:19:01;;;;;;;4.82;1.60;;;;;;;;;;5022108;28;20033;-73
2021/12/09 00:21:26;;;;;;;6.80;1.88;;;;;;;;;;5023289;28;20050;-73
2021/12/09 00:23:51;;;;;;;5.28;1.95;;;;;;;;;;5004826;28;20026;-72
2021/12/09 00:26:17;;;;;;;6.03;1.75;;;;;;;;;;5026930;28;20111;-73
2021/12/09 00:28:42;;;;;;;3.85;1.70;;;;;;;;;;5026381;28;20030;-72
2021/12/09 00:31:08;;;;;;;4.13;1.67;;;;;;;;;;5009147;28;20034;-73
2021/12/09 00:33:40;;;;;;;5.97;1.67;;;;;;;;;;5008867;28;20026;-72
2021/12/09 00:36:06;;;;;;;2.80;1.42;;;;;;;;;;5009054;28;20033;-72
2021/12/09 00:38:38;;;;;;;3.65;1.45;;;;;;;;;;5026598;28;20033;-72
2021/12/09 00:41:07;;;;;;;3.30;1.50;;;;;;;;;;5008742;28;20025;-72
2021/12/09 00:43:32;;;;;;;4.75;1.73;;;;;;;;;;5026342;28;20034;-74
2021/12/09 00:45:58;;;;;;;5.38;1.98;;;;;;;;;;5008924;28;20073;-74
2021/12/09 00:48:25;;;;;;;6.47;1.85;;;;;;;;;;5026316;28;20046;-73
2021/12/09 00:50:53;;;;;;;3.05;1.58;;;;;;;;;;5008511;28;20072;-71
2021/12/09 00:53:18;;;;;;;3.65;1.35;;;;;;;;;;5026106;28;20101;-72
2021/12/09 00:55:44;;;;;;;3.33;1.52;;;;;;;;;;5026494;28;20466;-74
2021/12/09 00:58:09;;;;;;;5.18;1.80;;;;;;;;;;5026172;28;20590;-74
2021/12/09 01:00:35;;;;;;;3.13;1.55;;;;;;;;;;5007888;28;20116;-72
2021/12/09 01:03:00;;;;;;;4.32;1.40;;;;;;;;;;5026284;28;20053;-72
2021/12/09 01:05:27;;;;;;;2.75;1.48;;;;;;;;;;5026184;28;20060;-72
2021/12/09 01:07:53;;;;;;;8.45;1.60;;;;;;;;;;5026263;28;20064;-71
2021/12/09 01:10:18;;;;;;;3.50;1.45;;;;;;;;;;5025938;28;20038;-72
2021/12/09 01:12:44;;;;;;;4.07;1.77;;;;;;;;;;5007844;28;20014;-71
2021/12/09 01:15:13;;;;;;;4.25;1.48;;;;;;;;;;5025787;28;20125;-72
2021/12/09 01:17:38;;;;;;;4.57;1.70;;;;;;;;;;5024688;28;20040;-74
2021/12/09 01:20:06;;;;;;;3.42;1.42;;;;;;;;;;5025384;28;20054;-73
2021/12/09 01:22:38;;;;;;;6.82;1.75;;;;;;;;;;5025454;28;20133;-74
2021/12/09 01:25:06;;;;;;;3.78;1.67;;;;;;;;;;5025738;28;20022;-71
2021/12/09 01:27:35;;;;;;;4.85;1.45;;;;;;;;;;5025526;28;20037;-72
2021/12/09 01:30:07;;;;;;;5.38;1.58;;;;;;;;;;5025161;28;20026;-73
2021/12/09 01:32:33;;;;;;;3.55;1.25;;;;;;;;;;5007951;28;20037;-72
2021/12/09 01:34:58;;;;;;;4.07;1.40;;;;;;;;;;5025171;28;20022;-74
2021/12/09 01:37:24;;;;;;;5.38;1.55;;;;;;;;;;5025847;28;20082;-72
2021/12/09 01:39:49;;;;;;;2.33;1.33;;;;;;;;;;5025420;28;20033;-74
2021/12/09 01:42:17;;;;;;;5.82;1.92;;;;;;;;;;5007280;28;20045;-72
2021/12/09 01:44:43;;;;;;;2.75;1.23;;;;;;;;;;5025261;28;20463;-74
2021/12/09 01:47:08;;;;;;;3.30;1.30;;;;;;;;;;5024969;28;20026;-73
2021/12/09 01:49:34;;;;;;;3.88;1.50;;;;;;;;;;5007330;28;20029;-72
2021/12/09 01:52:01;;;;;;;4.60;1.63;;;;;;;;;;5007526;28;20040;-72
2021/12/09 01:54:26;;;;;;;3.72;1.35;;;;;;;;;;5006980;28;20018;-76
2021/12/09 01:56:52;;;;;;;5.05;1.42;;;;;;;;;;5024921;28;20018;-73
2021/12/09 01:59:18;;;;;;;3.90;1.20;;;;;;;;;;5024802;28;20079;-71
2021/12/09 02:01:43;;;;;;;3.85;1.60;;;;;;;;;;5025023;28;20109;-73
2021/12/09 02:04:11;;;;;;;5.25;1.42;;;;;;;;;;5025074;28;20030;-72
2021/12/09 02:06:40;;;;;;;6.95;1.52;;;;;;;;;;5024838;28;20049;-74
2021/12/09 02:09:07;;;;;;;2.95;1.48;;;;;;;;;;5024538;28;20103;-71
2021/12/09 02:11:33;;;;;;;3.53;1.50;;;;;;;;;;5024137;28;20089;-74
2021/12/09 02:13:59;;;;;;;7.63;1.67;;;;;;;;;;5024699;28;20033;-74
2021/12/09 02:16:25;;;;;;;4.00;1.50;;;;;;;;;;5024746;28;20030;-75
2021/12/09 02:18:51;;;;;;;5.25;1.60;;;;;;;;;;5024495;28;20022;-72
2021/12/09 02:21:23;;;;;;;3.08;1.35;;;;;;;;;;5024693;28;20120;-73
2021/12/09 02:23:51;;;;;;;3.55;1.38;;;;;;;;;;5024642;28;20029;-73
2021/12/09 02:26:20;;;;;;;4.07;1.48;;;;;;;;;;5024424;28;20111;-72
2021/12/09 02:28:46;;;;;;;5.75;2.13;;;;;;;;;;5024390;28;20053;-72
2021/12/09 02:31:12;;;;;;;4.22;1.40;;;;;;;;;;5024544;28;20087;-72
2021/12/09 02:33:37;;;;;;;3.22;1.52;;;;;;;;;;5006638;28;20259;-73
2021/12/09 02:36:03;;;;;;;6.97;1.50;;;;;;;;;;5006892;28;20034;-75
2021/12/09 02:38:29;;;;;;;5.18;1.48;;;;;;;;;;5006505;28;20022;-75
2021/12/09 02:40:56;;;;;;;4.72;1.65;;;;;;;;;;5024747;28;20068;-72
2021/12/09 02:43:28;;;;;;;3.65;1.48;;;;;;;;;;5024044;28;20046;-73
2021/12/09 02:45:56;;;;;;;5.10;1.58;;;;;;;;;;5006350;28;20026;-74
2021/12/09 02:48:23;;;;;;;3.38;1.75;;;;;;;;;;5004985;28;20982;-74
2021/12/09 02:50:50;;;;;;;3.10;1.70;;;;;;;;;;5006437;28;20076;-74
2021/12/09 02:53:16;;;;;;;3.28;1.50;;;;;;;;;;5023694;28;20038;-71
2021/12/09 02:55:43;;;;;;;5.75;1.90;;;;;;;;;;5024023;28;20025;-75
2021/12/09 02:58:08;;;;;;;2.97;1.40;;;;;;;;;;5006150;28;20033;-73
2021/12/09 03:00:54;;;;;;;3.28;1.58;;;;;;;;;;5023745;28;20033;-75
2021/12/09 03:03:20;;;;;;;5.05;1.70;;;;;;;;;;5023602;28;20081;-73
2021/12/09 03:05:46;;;;;;;3.83;1.70;;;;;;;;;;5024028;28;20029;-73
2021/12/09 03:08:19;;;;;;;6.10;1.77;;;;;;;;;;5023848;28;20483;-72
2021/12/09 03:10:44;;;;;;;4.28;1.50;;;;;;;;;;5023749;28;20128;-76
2021/12/09 03:13:11;;;;;;;4.10;1.73;;;;;;;;;;5023946;28;20037;-71
2021/12/09 03:15:36;;;;;;;3.67;1.30;;;;;;;;;;5023698;28;20026;-74
2021/12/09 03:18:02;;;;;;;3.83;1.58;;;;;;;;;;5023308;28;20053;-72
2021/12/09 03:20:27;;;;;;;4.00;1.80;;;;;;;;;;5023383;28;20041;-72
2021/12/09 03:22:53;;;;;;;5.18;1.65;;;;;;;;;;5023706;28;20041;-74
2021/12/09 03:25:20;;;;;;;3.58;1.45;;;;;;;;;;5023631;28;20038;-73
2021/12/09 03:27:47;;;;;;;3.33;1.58;;;;;;;;;;5023424;28;20034;-72
2021/12/09 03:30:15;;;;;;;4.07;1.77;;;;;;;;;;5023114;28;20030;-73
2021/12/09 03:32:41;;;;;;;2.90;1.30;;;;;;;;;;5022966;28;20026;-74
2021/12/09 03:35:09;;;;;;;2.97;1.35;;;;;;;;;;5023317;28;20565;-72
2021/12/09 03:37:34;;;;;;;3.50;1.40;;;;;;;;;;5023215;28;20113;-73
2021/12/09 03:40:00;;;;;;;5.47;1.52;;;;;;;;;;5023345;28;20042;-71
2021/12/09 03:42:28;;;;;;;3.42;1.45;;;;;;;;;;5005524;28;20038;-73
2021/12/09 03:44:55;;;;;;;4.38;1.60;;;;;;;;;;5023312;28;20316;-71
2021/12/09 03:47:23;;;;;;;3.33;1.63;;;;;;;;;;5022638;28;20034;-75
2021/12/09 03:49:50;;;;;;;3.40;1.70;;;;;;;;;;5022887;28;20119;-75
2021/12/09 03:52:15;;;;;;;5.03;1.98;;;;;;;;;;5022679;28;20057;-75
2021/12/09 03:54:43;;;;;;;5.88;1.60;;;;;;;;;;5023241;28;20022;-74
2021/12/09 03:57:10;;;;;;;4.38;1.67;;;;;;;;;;5023137;28;20029;-74
2021/12/09 03:59:35;;;;;;;5.47;1.50;;;;;;;;;;5008396;28;20120;-74
2021/12/09 04:02:01;;;;;;;3.45;1.50;;;;;;;;;;5026827;28;20026;-74
2021/12/09 04:04:27;;;;;;;3.08;1.60;;;;;;;;;;5026926;28;20026;-72
2021/12/09 04:06:52;;;;;;;2.63;1.40;;;;;;;;;;5027089;28;20033;-73
2021/12/09 04:09:22;;;;;;;3.42;1.67;;;;;;;;;;5026916;28;20030;-74
2021/12/09 04:11:47;;;;;;;3.65;1.60;;;;;;;;;;5027209;28;20030;-74
2021/12/09 04:14:13;;;;;;;2.80;1.35;;;;;;;;;;5026914;28;20037;-74
2021/12/09 04:16:39;;;;;;;3.05;1.60;;;;;;;;;;5026756;28;20026;-76
2021/12/09 04:19:06;;;;;;;3.47;1.50;;;;;;;;;;5008915;28;20066;-71
2021/12/09 04:21:32;;;;;;;3.63;1.40;;;;;;;;;;5026953;28;20026;-74
2021/12/09 04:23:58;;;;;;;5.38;1.40;;;;;;;;;;5008927;28;20025;-71
2021/12/09 04:26:24;;;;;;;3.50;1.27;;;;;;;;;;5009181;28;20129;-75
2021/12/09 04:28:50;;;;;;;1.80;1.08;;;;;;;;;;5026525;28;20030;-74
2021/12/09 04:31:15;;;;;;;5.35;1.33;;;;;;;;;;5026823;28;20068;-73
2021/12/09 04:33:42;;;;;;;4.40;1.20;;;;;;;;;;5026365;28;20045;-73
2021/12/09 04:36:08;;;;;;;3.85;1.25;;;;;;;;;;5026373;28;20026;-75
2021/12/09 04:38:34;;;;;;;3.05;1.02;;;;;;;;;;5026448;28;20040;-71
2021/12/09 04:40:59;;;;;;;4.53;1.38;;;;;;;;;;5026582;28;20053;-72
2021/12/09 04:43:24;;;;;;;4.70;1.50;;;;;;;;;;5026415;28;20100;-73
2021/12/09 04:45:50;;;;;;;3.83;1.58;;;;;;;;;;5008910;28;20030;-74
2021/12/09 04:48:15;;;;;;;4.05;1.60;;;;;;;;;;5008281;28;20414;-74
2021/12/09 04:50:42;;;;;;;3.28;1.40;;;;;;;;;;5026132;28;20474;-74
2021/12/09 04:53:10;;;;;;;3.63;1.50;;;;;;;;;;5026306;28;20081;-74
2021/12/09 04:55:36;;;;;;;2.53;1.25;;;;;;;;;;5025401;28;20098;-75
2021/12/09 04:58:01;;;;;;;5.28;1.40;;;;;;;;;;5025209;28;20061;-76
2021/12/09 05:00:29;;;;;;;2.95;1.50;;;;;;;;;;5025874;28;20030;-72
2021/12/09 05:03:04;;;;;;;3.22;1.38;;;;;;;;;;5025892;28;20025;-74
2021/12/09 05:05:34;;;;;;;3.22;1.40;;;;;;;;;;5026070;28;20026;-75
2021/12/09 05:08:00;;;;;;;4.38;1.38;;;;;;;;;;5008061;28;20037;-72
2021/12/09 05:10:26;;;;;;;4.45;1.60;;;;;;;;;;5024937;28;20474;-76
2021/12/09 05:12:52;;;;;;;2.47;1.40;;;;;;;;;;5025733;28;20085;-72
2021/12/09 05:15:17;;;;;;;4.72;1.50;;;;;;;;;;5026108;28;20511;-74
2021/12/09 05:17:43;;;;;;;4.20;1.30;;;;;;;;;;5025541;28;20033;-74
2021/12/09 05:20:08;;;;;;;3.92;1.45;;;;;;;;;;5026006;28;20471;-75
2021/12/09 05:22:34;;;;;;;3.30;1.25;;;;;;;;;;5025258;28;20057;-76
2021/12/09 05:24:59;;;;;;;2.90;1.48;;;;;;;;;;5025593;28;20248;-72
2021/12/09 05:27:25;;;;;;;3.92;1.40;;;;;;;;;;5025484;28;20123;-71
2021/12/09 05:30:04;;;;;;;3.75;1.45;;;;;;;;;;5025085;28;20030;-73
2021/12/09 05:32:31;;;;;;;3.40;1.35;;;;;;;;;;5025320;28;20378;-74
2021/12/09 05:34:56;;;;;;;2.78;1.20;;;;;;;;;;5005270;28;20125;-77
2021/12/09 05:37:25;;;;;;;5.82;1.70;;;;;;;;;;5024890;28;20029;-72
2021/12/09 05:39:52;;;;;;;3.40;1.60;;;;;;;;;;5025559;28;20117;-72
2021/12/09 05:42:21;;;;;;;5.15;1.35;;;;;;;;;;5025222;28;20041;-73
2021/12/09 05:44:47;;;;;;;3.03;1.23;;;;;;;;;;5025244;28;20041;-72
2021/12/09 05:47:13;;;;;;;2.50;1.27;;;;;;;;;;5006885;28;20051;-75
2021/12/09 05:49:42;;;;;;;7.15;1.60;;;;;;;;;;5024745;28;20030;-72
2021/12/09 05:52:08;;;;;;;4.43;1.20;;;;;;;;;;5024727;28;20030;-74
2021/12/09 05:54:34;;;;;;;3.03;1.30;;;;;;;;;;5024635;28;20108;-73
2021/12/09 05:57:00;;;;;;;4.78;1.42;;;;;;;;;;5024824;28;20033;-73
2021/12/09 05:59:26;;;;;;;3.55;1.58;;;;;;;;;;5006919;28;20029;-73
2021/12/09 06:01:52;;;;;;;3.53;1.27;;;;;;;;;;5007313;28;20034;-73
2021/12/09 06:04:18;;;;;;;4.20;1.20;;;;;;;;;;5006728;28;20036;-74
2021/12/09 06:06:43;;;;;;;4.28;1.13;;;;;;;;;;5024798;28;20108;-77
2021/12/09 06:09:10;;;;;;;6.95;1.67;;;;;;;;;;5024376;28;20053;-72
2021/12/09 06:11:37;;;;;;;2.40;1.30;;;;;;;;;;5007059;28;20030;-73
2021/12/09 06:14:04;;;;;;;3.20;1.52;;;;;;;;;;5024572;28;20031;-75
2021/12/09 06:16:29;;;;;;;5.60;1.65;;;;;;;;;;5024289;28;20075;-74
2021/12/09 06:18:55;;;;;;;4.47;1.75;;;;;;;;;;5006474;28;20080;-73
2021/12/09 06:21:23;;;;;;;2.00;0.95;;;;;;;;;;5024538;28;20025;-76
2021/12/09 06:23:50;;;;;;;2.33;1.33;;;;;;;;;;5006529;28;20036;-76
2021/12/09 06:26:16;;;;;;;2.10;1.30;;;;;;;;;;5024334;28;20049;-74
2021/12/09 06:28:41;;;;;;;3.17;1.20;;;;;;;;;;5024135;28;20040;-73
2021/12/09 06:31:07;;;;;;;3.50;1.73;;;;;;;;;;5024110;28;20387;-73
2021/12/09 06:33:33;;;;;;;4.18;1.45;;;;;;;;;;5024315;28;20078;-72
2021/12/09 06:36:00;;;;;;;4.03;1.40;;;;;;;;;;5024593;28;20033;-74
2021/12/09 06:38:25;;;;;;;3.20;1.50;;;;;;;;;;5006155;28;20029;-75
2021/12/09 06:40:51;;;;;;;4.05;1.33;;;;;;;;;;5006570;28;20113;-73
2021/12/09 06:43:17;;;;;;;3.05;1.60;;;;;;;;;;5024131;28;20033;-75
2021/12/09 06:45:43;;;;;;;2.03;1.20;;;;;;;;;;5023900;28;20096;-74
2021/12/09 06:48:10;;;;;;;2.45;1.50;;;;;;;;;;5023467;28;20053;-71
2021/12/09 06:50:36;;;;;;;5.38;1.65;;;;;;;;;;5023999;28;20028;-74
2021/12/09 06:53:02;;;;;;;2.33;1.02;;;;;;;;;;5023852;28;20367;-73
2021/12/09 06:55:31;;;;;;;4.75;1.55;;;;;;;;;;5005246;28;20057;-74
2021/12/09 06:57:57;;;;;;;1.98;1.05;;;;;;;;;;5023653;28;20037;-73
2021/12/09 07:00:28;;;;;;;3.72;1.30;;;;;;;;;;5006109;28;20060;-75
2021/12/09 07:02:54;;;;;;;3.95;1.38;;;;;;;;;;5005769;28;20132;-73
2021/12/09 07:05:22;;;;;;;3.67;1.40;;;;;;;;;;5023644;28;20041;-73
2021/12/09 07:07:49;;;;;;;3.95;1.30;;;;;;;;;;5023271;28;20034;-74
2021/12/09 07:10:15;;;;;;;2.67;1.20;;;;;;;;;;5005108;28;20056;-74
2021/12/09 07:12:41;;;;;;;2.55;1.33;;;;;;;;;;5022734;28;20026;-77
2021/12/09 07:15:09;;;;;;;2.90;1.50;;;;;;;;;;5005252;28;20104;-76
2021/12/09 07:17:35;;;;;;;2.25;1.33;;;;;;;;;;5022188;28;20045;-76
2021/12/09 07:20:03;;;;;;;3.72;1.38;;;;;;;;;;5022380;28;20157;-75
2021/12/09 07:22:28;;;;;;;3.13;1.35;;;;;;;;;;5023359;28;20041;-75
2021/12/09 07:24:54;;;;;;;3.15;1.20;;;;;;;;;;5023744;28;20026;-71
2021/12/09 07:27:19;;;;;;;5.07;1.40;;;;;;;;;;5023249;28;20032;-76
2021/12/09 07:29:44;;;;;;;3.05;1.10;;;;;;;;;;5023632;28;20032;-75
2021/12/09 07:32:10;;;;;;;2.08;1.23;;;;;;;;;;5023628;28;20022;-71
2021/12/09 07:34:38;;;;;;;3.55;1.30;;;;;;;;;;5022949;28;20030;-73
2021/12/09 07:37:05;;;;;;;2.60;1.25;;;;;;;;;;5023153;28;20108;-73
2021/12/09 07:39:32;;;;;;;2.95;1.35;;;;;;;;;;5023316;28;20034;-74
2021/12/09 07:41:59;;;;;;;4.15;1.40;;;;;;;;;;5023245;28;20250;-74
2021/12/09 07:44:26;;;;;;;2.67;1.10;;;;;;;;;;5005629;28;20075;-72
2021/12/09 07:46:52;;;;;;;4.47;1.50;;;;;;;;;;5023434;28;20030;-73
2021/12/09 07:49:19;;;;;;;3.05;1.40;;;;;;;;;;5022981;28;20105;-74
2021/12/09 07:51:45;;;;;;;2.53;1.13;;;;;;;;;;5005630;28;20156;-73
2021/12/09 07:54:10;;;;;;;3.45;1.45;;;;;;;;;;5005468;28;20065;-72
2021/12/09 07:56:36;;;;;;;1.25;0.95;;;;;;;;;;5023403;28;20057;-72
2021/12/09 07:59:01;;;;;;;3.83;1.40;;;;;;;;;;5023144;28;20109;-74
2021/12/09 08:01:29;;;;;;;2.72;1.20;;;;;;;;;;5023236;28;20069;-73
2021/12/09 08:03:54;;;;;;;4.03;1.30;;;;;;;;;;5023373;28;20030;-75
2021/12/09 08:06:20;;;;;;;4.07;1.23;;;;;;;;;;5023649;28;20040;-71
2021/12/09 08:08:45;;;;;;;2.40;1.10;;;;;;;;;;5023001;28;20076;-74
2021/12/09 08:11:11;;;;;;;2.58;1.15;;;;;;;;;;5005546;28;20080;-72
2021/12/09 08:13:36;;;;;;;2.35;1.13;;;;;;;;;;5022858;28;20060;-75
2021/12/09 08:16:02;;;;;;;1.75;1.00;;;;;;;;;;5005569;28;20065;-75
2021/12/09 08:18:29;;;;;;;3.17;1.30;;;;;;;;;;5023017;28;20030;-74
2021/12/09 08:20:59;;;;;;;2.17;1.20;;;;;;;;;;5023377;28;20026;-71
2021/12/09 08:23:25;;;;;;;2.95;1.08;;;;;;;;;;5023029;28;20026;-73
2021/12/09 08:25:50;;;;;;;2.20;1.17;;;;;;;;;;5023448;28;20026;-72
2021/12/09 08:28:16;;;;;;;2.67;1.40;;;;;;;;;;5022903;28;20335;-72
2021/12/09 08:30:42;;;;;;;4.60;1.25;;;;;;;;;;5022818;28;20314;-72
2021/12/09 08:33:08;;;;;;;2.83;1.42;;;;;;;;;;5022988;28;20143;-72
2021/12/09 08:35:35;;;;;;;2.08;1.17;;;;;;;;;;5023194;28;20093;-73
2021/12/09 08:38:06;;;;;;;2.67;1.25;;;;;;;;;;5022817;28;20033;-73
2021/12/09 08:40:32;;;;;;;2.15;0.90;;;;;;;;;;5022986;28;20038;-74
2021/12/09 08:42:58;;;;;;;2.92;1.10;;;;;;;;;;5005069;28;20510;-73
2021/12/09 08:45:24;;;;;;;2.65;1.00;;;;;;;;;;5005976;28;20286;-72
2021/12/09 08:47:49;;;;;;;3.85;1.40;;;;;;;;;;5026194;28;20106;-72
2021/12/09 08:50:19;;;;;;;2.67;1.40;;;;;;;;;;5026386;28;20030;-76
2021/12/09 08:52:45;;;;;;;4.63;1.83;;;;;;;;;;5008525;28;20033;-75
2021/12/09 08:55:11;;;;;;;4.07;1.27;;;;;;;;;;5026513;28;20041;-73
2021/12/09 08:57:37;;;;;;;2.28;1.02;;;;;;;;;;5026435;28;20098;-72
2021/12/09 09:00:11;;;;;;;2.08;1.15;;;;;;;;;;5026370;28;20034;-72
2021/12/09 09:02:41;;;;;;;;;;;;;;;;;;5026622;28;20486;-76
2021/12/09 09:05:10;;;;;;;3.83;1.20;;;;;;;;;;5026253;28;19913;-72
2021/12/09 09:07:43;;;;;;;7.60;1.92;;;;;;;;;;5008446;28;20053;-73
2021/12/09 09:10:10;;;;;;;3.65;1.70;;;;;;;;;;5026183;28;20025;-74
2021/12/09 09:12:36;;;;;;;4.20;1.50;;;;;;;;;;5008312;28;20083;-72
2021/12/09 09:15:04;;;;;;;8.02;1.70;;;;;;;;;;5026145;28;20036;-72
2021/12/09 09:17:30;;;;;;;3.97;1.20;;;;;;;;;;5025934;28;20085;-74
2021/12/09 09:19:55;;;;;;;4.65;1.45;;;;;;;;;;5025902;28;20061;-72
2021/12/09 09:22:20;;;;;;;3.17;1.40;;;;;;;;;;5025887;28;20033;-73
2021/12/09 09:24:46;;;;;;;5.18;1.98;;;;;;;;;;5025856;28;20036;-72
2021/12/09 09:27:12;;;;;;;4.57;1.58;;;;;;;;;;5008207;28;20157;-75
2021/12/09 09:29:39;;;;;;;3.17;1.10;;;;;;;;;;5025933;28;20025;-73
2021/12/09 09:32:07;;;;;;;3.45;1.35;;;;;;;;;;5025619;28;20052;-72
2021/12/09 09:34:32;;;;;;;3.28;1.42;;;;;;;;;;5007844;28;20029;-77
2021/12/09 09:36:58;;;;;;;6.38;1.70;;;;;;;;;;5008066;28;20054;-72
2021/12/09 09:39:28;;;;;;;2.03;1.27;;;;;;;;;;5007646;28;20029;-73
2021/12/09 09:42:16;;;;;;;3.45;1.35;;;;;;;;;;5025620;28;20363;-72
2021/12/09 09:44:54;;;;;;;5.47;1.60;;;;;;;;;;5007864;28;20029;-74
2021/12/09 09:47:21;;;;;;;3.80;1.40;;;;;;;;;;5025129;28;20025;-74
2021/12/09 09:49:46;;;;;;;4.50;1.45;;;;;;;;;;5007664;28;20080;-76
2021/12/09 09:52:12;;;;;;;4.22;1.70;;;;;;;;;;5007700;28;20033;-74
2021/12/09 09:54:40;;;;;;;4.97;1.45;;;;;;;;;;5007662;28;20034;-72
2021/12/09 09:57:07;;;;;;;2.47;1.33;;;;;;;;;;5006993;28;20034;-74
2021/12/09 09:59:32;;;;;;;4.07;1.40;;;;;;;;;;5025164;28;20049;-73
2021/12/09 10:01:58;;;;;;;4.72;1.63;;;;;;;;;;5025101;28;20038;-72
2021/12/09 10:04:44;;;;;;;5.53;1.70;;;;;;;;;;5024991;28;20033;-75
2021/12/09 10:07:12;;;;;;;4.07;1.80;;;;;;;;;;5024865;28;20026;-73
2021/12/09 10:09:40;;;;;;;3.40;1.65;;;;;;;;;;5007244;28;20064;-72
2021/12/09 10:12:07;;;;;;;2.38;1.50;;;;;;;;;;5007237;28;20093;-72
2021/12/09 10:14:34;;;;;;;4.63;1.70;;;;;;;;;;5024890;28;20037;-72
2021/12/09 10:17:02;;;;;;;2.97;1.40;;;;;;;;;;5024873;28;20036;-73
2021/12/09 10:19:28;;;;;;;4.45;1.63;;;;;;;;;;5024891;28;20034;-72
2021/12/09 10:22:06;;;;;;;3.05;1.90;;;;;;;;;;5024430;28;20087;-74
2021/12/09 10:24:32;;;;;;;3.40;1.40;;;;;;;;;;5024588;28;20025;-74
2021/12/09 10:26:57;;;;;;;3.78;1.42;;;;;;;;;;5024820;28;20057;-72
2021/12/09 10:29:27;;;;;;;4.70;1.83;;;;;;;;;;5024385;28;20033;-72
2021/12/09 10:31:58;;;;;;;3.70;1.60;;;;;;;;;;5007015;28;20041;-73
2021/12/09 10:37:00;;;;;;;3.45;1.63;;;;;;;;;;5024658;28;20045;-73
2021/12/09 10:39:33;;;;;;;9.52;1.80;;;;;;;;;;5024407;28;20046;-74
2021/12/09 10:42:06;;;;;;;5.18;1.60;;;;;;;;;;5024629;28;20044;-71
2021/12/09 10:44:33;;;;;;;4.60;2.47;;;;;;;;;;5023874;28;20040;-73
2021/12/09 10:47:12;;;;;;;4.72;2.20;;;;;;;;;;5023052;28;20413;-75
2021/12/09 10:49:53;;;;;;;3.70;1.85;;;;;;;;;;5023952;28;20034;-73
2021/12/09 10:52:38;;;;;;;4.50;2.10;;;;;;;;;;5006441;28;20029;-71
2021/12/09 10:55:14;;;;;;;2.63;1.58;;;;;;;;;;5006541;28;20038;-75
2021/12/09 10:57:40;;;;;;;4.32;2.20;;;;;;;;;;5024241;28;20014;-73
2021/12/09 11:00:15;;;;;;;4.72;1.83;;;;;;;;;;5024193;28;20111;-74
2021/12/09 11:03:04;;;;;;;5.22;2.10;;;;;;;;;;5023950;28;20026;-72
2021/12/09 11:05:33;;;;;;;6.25;1.85;;;;;;;;;;5024344;28;20030;-72
2021/12/09 11:08:17;;;;;;;5.13;1.90;;;;;;;;;;5005419;28;20030;-73
2021/12/09 11:10:48;;;;;;;5.03;2.30;;;;;;;;;;5006146;28;20101;-74
2021/12/09 11:13:17;;;;;;;7.05;2.60;;;;;;;;;;5023998;28;20029;-74
2021/12/09 11:15:55;;;;;;;7.53;2.38;;;;;;;;;;5023841;28;20037;-74
2021/12/09 11:18:28;;;;;;;4.05;2.20;;;;;;;;;;5006079;28;20017;-73
2021/12/09 11:20:54;;;;;;;5.43;1.83;;;;;;;;;;5006223;28;20355;-71
2021/12/09 11:23:32;;;;;;;4.75;2.22;;;;;;;;;;5023542;28;20038;-72
2021/12/09 11:26:18;;;;;;;5.10;2.55;;;;;;;;;;5023805;28;20482;-75
2021/12/09 11:29:17;;;;;;;4.18;2.35;;;;;;;;;;5023553;28;20033;-74
2021/12/09 11:31:54;;;;;;;6.18;2.60;;;;;;;;;;5006061;28;20034;-71
2021/12/09 11:34:24;;;;;;;6.55;2.78;;;;;;;;;;5023520;28;20029;-74
2021/12/09 11:36:58;;;;;;;6.60;2.25;;;;;;;;;;5023610;28;20076;-75
2021/12/09 11:39:31;;;;;;;5.07;2.10;;;;;;;;;;5023396;28;20080;-75
2021/12/09 11:42:05;;;;;;;6.40;2.30;;;;;;;;;;5023709;28;20054;-73
2021/12/09 11:44:32;;;;;;;6.03;2.40;;;;;;;;;;5005323;28;20030;-72
2021/12/09 11:46:58;;;;;;;5.15;2.08;;;;;;;;;;5005828;28;20117;-72
2021/12/09 11:49:23;;;;;;;8.27;2.83;;;;;;;;;;5004630;28;20058;-73
2021/12/09 11:51:49;;;;;;;4.40;2.40;;;;;;;;;;5003734;28;20026;-75
2021/12/09 11:54:14;;;;;;;3.65;1.88;;;;;;;;;;5003729;28;20023;-71
2021/12/09 11:56:55;;;;;;;5.07;2.45;;;;;;;;;;5003706;28;20026;-73
2021/12/09 12:11:25;;;;;;;6.00;2.97;;;;;;;;;;5003618;28;20115;-74
2021/12/09 12:13:55;;;;;;;3.40;2.13;;;;;;;;;;4985915;28;20129;-72
2021/12/09 12:19:34;;;;;;;11.68;3.42;;;;;;;;;;5004364;28;20030;-72
2021/12/09 12:22:05;;;;;;;6.13;2.92;;;;;;;;;;4990271;28;20031;-73
2021/12/09 12:27:14;;;;;;;5.40;2.85;;;;;;;;;;5007453;28;20034;-72
2021/12/09 12:30:22;;;;;;;9.05;2.88;;;;;;;;;;4989689;28;20114;-75
2021/12/09 12:35:57;;;;;;;8.23;3.60;;;;;;;;;;5007302;28;20040;-73
2021/12/09 12:40:57;;;;;;;6.25;3.10;;;;;;;;;;5007330;28;20387;-74
2021/12/09 12:43:32;;;;;;;6.97;3.10;;;;;;;;;;4989353;28;20481;-73
2021/12/09 12:49:07;;;;;;;6.63;3.45;;;;;;;;;;5008733;28;20109;-71
2021/12/09 12:51:46;;;;;;;6.80;2.78;;;;;;;;;;5007069;28;20048;-73
2021/12/09 12:54:20;;;;;;;7.28;3.05;;;;;;;;;;5006674;28;20399;-73
2021/12/09 12:56:47;;;;;;;;;;;;;;;;;;4989833;28;20422;-74
2021/12/09 12:59:14;;;;;;;5.40;2.97;;;;;;;;;;5006663;28;19910;-72
2021/12/09 13:02:16;;;;;;;8.30;2.92;;;;;;;;;;5006713;28;20026;-73
2021/12/09 13:08:25;;;;;;;4.57;2.72;;;;;;;;;;5006521;28;20054;-74
2021/12/09 13:10:25;;;;;;;6.60;2.42;;;;;;;;;;4997936;28;20038;-73
2021/12/09 13:16:08;;;;;;;7.47;3.65;;;;;;;;;;4945668;29;20040;-74
2021/12/09 13:19:30;;;;;;;5.95;3.40;;;;;;;;;;4945404;29;20031;-71
2021/12/09 13:22:10;;;;;;;4.50;2.47;;;;;;;;;;4945716;29;20048;-73
2021/12/09 13:24:57;;;;;;;5.18;2.50;;;;;;;;;;5006281;28;20030;-72
2021/12/09 13:27:30;;;;;;;5.75;2.83;;;;;;;;;;4988358;28;20598;-72
2021/12/09 13:32:54;;;;;;;5.75;3.58;;;;;;;;;;5005131;28;20034;-73
2021/12/09 13:35:32;;;;;;;5.72;3.42;;;;;;;;;;4988478;28;20113;-74
2021/12/09 13:38:38;;;;;;;6.47;3.20;;;;;;;;;;4988142;28;20034;-73
2021/12/09 13:49:20;;;;;;;6.35;2.80;;;;;;;;;;5005174;28;20081;-74
2021/12/09 13:54:29;;;;;;;6.00;4.00;;;;;;;;;;5004176;28;20034;-73
2021/12/09 13:57:04;;;;;;;8.43;3.47;;;;;;;;;;5005876;28;20022;-72
2021/12/09 13:59:34;;;;;;;5.85;3.20;;;;;;;;;;5005547;28;20049;-72
2021/12/09 14:02:20;;;;;;;9.27;5.05;;;;;;;;;;5005250;28;20074;-73
2021/12/09 14:04:45;;;;;;;6.85;3.40;;;;;;;;;;4987893;28;20422;-74
2021/12/09 14:07:17;;;;;;;6.55;4.30;;;;;;;;;;5005264;28;20045;-72
2021/12/09 14:09:45;;;;;;;7.53;4.05;;;;;;;;;;5005434;28;20041;-74
2021/12/09 14:12:11;;;;;;;7.18;4.22;;;;;;;;;;5005099;28;20019;-74
2021/12/09 14:14:56;;;;;;;8.90;3.95;;;;;;;;;;5005157;28;20033;-74
2021/12/09 14:17:24;;;;;;;9.52;4.43;;;;;;;;;;5005153;28;20029;-72
2021/12/09 14:20:01;;;;;;;7.10;3.50;;;;;;;;;;4987507;28;20034;-72
2021/12/09 14:22:39;;;;;;;5.55;3.35;;;;;;;;;;5005144;28;20053;-74
2021/12/09 14:25:10;;;;;;;5.32;3.38;;;;;;;;;;5005286;28;20418;-73
2021/12/09 14:27:36;;;;;;;5.85;3.08;;;;;;;;;;4987173;28;20049;-73
2021/12/09 14:30:03;;;;;;;6.10;3.38;;;;;;;;;;4987028;28;20033;-74
2021/12/09 14:32:30;;;;;;;6.43;3.40;;;;;;;;;;5004724;28;20022;-73
2021/12/09 14:35:00;;;;;;;5.82;2.92;;;;;;;;;;5004883;28;20036;-72
2021/12/09 14:37:27;;;;;;;6.47;2.72;;;;;;;;;;4987160;28;20030;-72
2021/12/09 14:40:16;;;;;;;4.57;2.50;;;;;;;;;;5004674;28;20057;-73
2021/12/09 14:42:57;;;;;;;4.50;2.33;;;;;;;;;;5004652;28;20038;-73
2021/12/09 14:45:28;;;;;;;4.55;2.30;;;;;;;;;;5004606;28;20093;-73
2021/12/09 14:48:10;;;;;;;3.92;2.17;;;;;;;;;;5003865;28;20151;-72
2021/12/09 14:50:35;;;;;;;4.10;2.05;;;;;;;;;;4986958;28;20050;-73
2021/12/09 14:53:01;;;;;;;3.88;2.08;;;;;;;;;;5004397;28;20022;-74
2021/12/09 14:55:28;;;;;;;4.22;2.28;;;;;;;;;;5004570;28;20030;-74
2021/12/09 14:57:57;;;;;;;6.00;2.45;;;;;;;;;;5004205;28;20433;-75
2021/12/09 15:00:44;;;;;;;3.72;2.20;;;;;;;;;;5004376;28;20041;-75
2021/12/09 15:03:15;;;;;;;4.97;2.40;;;;;;;;;;5004032;28;20030;-74
2021/12/09 15:06:01;;;;;;;3.88;2.33;;;;;;;;;;4986833;28;20026;-74
2021/12/09 15:08:28;;;;;;;4.70;2.35;;;;;;;;;;5004284;28;20034;-73
2021/12/09 15:11:00;;;;;;;5.35;2.85;;;;;;;;;;5004219;28;20069;-72
2021/12/09 15:13:27;;;;;;;6.38;2.70;;;;;;;;;;5004230;28;20119;-74
2021/12/09 15:16:07;;;;;;;3.03;2.00;;;;;;;;;;5004278;28;20494;-73
2021/12/09 15:18:39;;;;;;;5.53;2.83;;;;;;;;;;5003904;28;20034;-73
2021/12/09 15:21:30;;;;;;;8.40;3.08;;;;;;;;;;5003987;28;20022;-71
2021/12/09 15:24:07;;;;;;;4.97;2.88;;;;;;;;;;5003732;28;20045;-74
2021/12/09 15:26:36;;;;;;;6.72;3.17;;;;;;;;;;5004215;28;20026;-74
2021/12/09 15:29:21;;;;;;;3.97;2.58;;;;;;;;;;5003700;28;20030;-75
2021/12/09 15:31:47;;;;;;;6.05;2.95;;;;;;;;;;5004152;28;20025;-74
2021/12/09 15:34:24;;;;;;;6.68;3.40;;;;;;;;;;5003875;28;20039;-72
2021/12/09 15:37:05;;;;;;;4.65;2.90;;;;;;;;;;5003791;28;20045;-74
2021/12/09 15:39:33;;;;;;;6.25;3.17;;;;;;;;;;4986028;28;20068;-75
2021/12/09 15:42:13;;;;;;;6.72;3.53;;;;;;;;;;5002682;28;20034;-74
2021/12/09 15:44:42;;;;;;;7.50;3.85;;;;;;;;;;5003853;28;20065;-73